Time,TemperatureF,DewpointF,PressureIn,WindDirection,WindDirectionDegrees,WindSpeedMPH,WindSpeedGustMPH,Humidity,HourlyPrecipIn,Conditions,Clouds,dailyrainin,SolarRadiationWatts/m^2,SoftwareType,DateUTC
2013-01-06 00:02:00,27.6,26.1,30.28,WSW,249,0.0,0.0,94,0.00,CLR,,0.00,0.0,WeatherDisplay:10.37,2013-01-06 06:02:00,
2013-01-06 00:07:00,27.6,26.1,30.28,WSW,249,0.0,0.0,94,0.00,CLR,,0.00,0.0,WeatherDisplay:10.37,2013-01-06 06:07:00,
2013-01-06 00:12:00,27.7,26.2,30.28,WSW,249,1.6,2.3,94,0.00,CLR,,0.00,0.0,WeatherDisplay:10.37,2013-01-06 06:12:00,
2013-01-06 00:17:00,28.0,26.5,30.28,WSW,249,0.6,2.3,94,0.00,CLR,,0.00,0.0,WeatherDisplay:10.37,2013-01-06 06:17:00,
2013-01-06 00:22:00,29.8,28.5,30.29,WNW,282,3.9,6.9,95,0.00,CLR,,0.00,0.0,WeatherDisplay:10.37,2013-01-06 06:22:00,
2013-01-06 00:27:00,32.8,31.5,30.29,NW,305,4.3,5.8,95,0.00,CLR,,0.00,0.0,WeatherDisplay:10.37,2013-01-06 06:27:00,
2013-01-06 00:32:00,31.5,30.0,30.29,NW,320,3.9,6.9,94,0.00,CLR,,0.00,0.0,WeatherDisplay:10.37,2013-01-06 06:32:00,
2013-01-06 00:37:00,33.1,31.3,30.29,NNW,334,4.7,7.0,93,0.00,CLR,,0.00,0.0,WeatherDisplay:10.37,2013-01-06 06:37:00,
2013-01-06 00:42:00,34.9,31.4,30.29,NNW,333,6.2,9.2,87,0.00,CLR,,0.00,0.0,WeatherDisplay:10.37,2013-01-06 06:42:00,
2013-01-06 00:47:00,35.5,30.5,30.29,North,351,6.5,9.2,82,0.00,CLR,,0.00,0.0,WeatherDisplay:10.37,2013-01-06 06:47:00,
2013-01-06 00:52:00,35.6,30.0,30.29,North,356,7.1,11.5,80,0.00,CLR,,0.00,0.0,WeatherDisplay:10.37,2013-01-06 06:52:00,
2013-01-06 00:57:00,35.8,29.9,30.29,NNW,347,8.0,12.0,79,0.00,CLR,,0.00,0.0,WeatherDisplay:10.37,2013-01-06 06:57:00,
2013-01-06 01:02:00,35.6,29.4,30.29,North,356,7.0,12.7,78,0.00,CLR,,0.00,0.0,WeatherDisplay:10.37,2013-01-06 07:02:00,
2013-01-06 01:07:00,35.6,29.1,30.29,North,356,7.4,11.5,77,0.00,CLR,,0.00,0.0,WeatherDisplay:10.37,2013-01-06 07:07:00,
2013-01-06 01:12:00,35.3,28.8,30.29,North,1,7.6,11.5,77,0.00,CLR,,0.00,0.0,WeatherDisplay:10.37,2013-01-06 07:12:00,
2013-01-06 01:17:00,35.2,28.7,30.30,North,356,3.7,6.9,77,0.00,CLR,,0.00,0.0,WeatherDisplay:10.37,2013-01-06 07:17:00,
2013-01-06 01:22:00,35.4,28.9,30.30,North,356,4.6,9.2,77,0.00,CLR,,0.00,0.0,WeatherDisplay:10.37,2013-01-06 07:22:00,
2013-01-06 01:27:00,34.6,28.1,30.30,North,349,5.0,8.1,77,0.00,CLR,,0.00,0.0,WeatherDisplay:10.37,2013-01-06 07:27:00,
2013-01-06 01:32:00,34.8,28.3,30.29,NNW,343,3.7,6.9,77,0.00,CLR,,0.00,0.0,WeatherDisplay:10.37,2013-01-06 07:32:00,
2013-01-06 01:37:00,34.7,28.2,30.30,NNW,346,5.0,6.0,77,0.00,CLR,,0.00,0.0,WeatherDisplay:10.37,2013-01-06 07:37:00,
2013-01-06 01:42:00,34.5,28.0,30.30,North,351,6.1,9.2,77,0.00,CLR,,0.00,0.0,WeatherDisplay:10.37,2013-01-06 07:42:00,
2013-01-06 01:47:00,34.5,28.0,30.30,NNW,348,4.6,6.0,77,0.00,CLR,,0.00,0.0,WeatherDisplay:10.37,2013-01-06 07:47:00,
2013-01-06 01:52:00,34.9,28.1,30.31,NNW,341,4.9,6.9,76,0.00,CLR,,0.00,0.0,WeatherDisplay:10.37,2013-01-06 07:52:00,
2013-01-06 01:57:00,35.1,28.0,30.31,North,356,6.7,9.2,75,0.00,CLR,,0.00,0.0,WeatherDisplay:10.37,2013-01-06 07:57:00,
2013-01-06 02:02:00,34.7,27.6,30.31,NNW,347,6.2,8.1,75,0.00,CLR,,0.00,0.0,WeatherDisplay:10.37,2013-01-06 08:02:00,
2013-01-06 02:07:00,34.7,27.3,30.31,North,356,7.7,11.5,74,0.00,CLR,,0.00,0.0,WeatherDisplay:10.37,2013-01-06 08:07:00,
2013-01-06 02:12:00,34.6,27.8,30.31,North,356,4.8,6.9,76,0.00,CLR,,0.00,0.0,WeatherDisplay:10.37,2013-01-06 08:12:00,
2013-01-06 02:17:00,34.7,27.3,30.31,North,356,4.8,9.2,74,0.00,CLR,,0.00,0.0,WeatherDisplay:10.37,2013-01-06 08:17:00,
2013-01-06 02:22:00,34.3,27.5,30.32,North,356,5.0,6.9,76,0.00,CLR,,0.00,0.0,WeatherDisplay:10.37,2013-01-06 08:22:00,
2013-01-06 02:27:00,34.4,27.3,30.32,NNW,348,5.6,9.2,75,0.00,CLR,,0.00,0.0,WeatherDisplay:10.37,2013-01-06 08:27:00,
2013-01-06 02:32:00,34.5,27.4,30.32,North,356,5.9,10.4,75,0.00,CLR,,0.00,0.0,WeatherDisplay:10.37,2013-01-06 08:32:00,
2013-01-06 02:37:00,34.3,27.2,30.31,North,356,4.6,6.9,75,0.00,CLR,,0.00,0.0,WeatherDisplay:10.37,2013-01-06 08:37:00,
2013-01-06 02:42:00,34.4,27.0,30.32,North,351,6.6,10.4,74,0.00,CLR,,0.00,0.0,WeatherDisplay:10.37,2013-01-06 08:42:00,
2013-01-06 02:47:00,34.0,26.9,30.32,North,356,6.5,10.4,75,0.00,CLR,,0.00,0.0,WeatherDisplay:10.37,2013-01-06 08:47:00,
2013-01-06 02:52:00,33.9,26.8,30.32,North,356,4.7,8.1,75,0.00,CLR,,0.00,0.0,WeatherDisplay:10.37,2013-01-06 08:52:00,
2013-01-06 02:57:00,34.3,26.5,30.32,North,356,7.4,11.5,73,0.00,CLR,,0.00,0.0,WeatherDisplay:10.37,2013-01-06 08:57:00,
2013-01-06 03:02:00,34.2,26.8,30.32,North,356,5.8,9.2,74,0.00,CLR,,0.00,0.0,WeatherDisplay:10.37,2013-01-06 09:02:00,
2013-01-06 03:07:00,33.9,26.5,30.32,North,1,6.6,9.2,74,0.00,CLR,,0.00,0.0,WeatherDisplay:10.37,2013-01-06 09:07:00,
2013-01-06 03:12:00,33.8,26.7,30.32,North,1,4.7,8.1,75,0.00,CLR,,0.00,0.0,WeatherDisplay:10.37,2013-01-06 09:12:00,
2013-01-06 03:17:00,33.6,26.2,30.32,North,1,6.6,9.2,74,0.00,CLR,,0.00,0.0,WeatherDisplay:10.37,2013-01-06 09:17:00,
2013-01-06 03:22:00,33.9,26.2,30.32,NNW,346,4.5,9.2,73,0.00,CLR,,0.00,0.0,WeatherDisplay:10.37,2013-01-06 09:22:00,
2013-01-06 03:27:00,33.3,25.9,30.32,North,1,3.4,5.8,74,0.00,CLR,,0.00,0.0,WeatherDisplay:10.37,2013-01-06 09:27:00,
2013-01-06 03:32:00,33.6,25.9,30.32,North,356,5.1,9.2,73,0.00,CLR,,0.00,0.0,WeatherDisplay:10.37,2013-01-06 09:32:00,
2013-01-06 03:37:00,33.4,26.0,30.32,North,356,5.4,9.2,74,0.00,CLR,,0.00,0.0,WeatherDisplay:10.37,2013-01-06 09:37:00,
2013-01-06 03:42:00,33.5,25.8,30.32,North,356,7.2,11.5,73,0.00,CLR,,0.00,0.0,WeatherDisplay:10.37,2013-01-06 09:42:00,
2013-01-06 03:47:00,33.0,25.3,30.32,North,1,5.8,9.2,73,0.00,CLR,,0.00,0.0,WeatherDisplay:10.37,2013-01-06 09:47:00,
2013-01-06 03:52:00,33.0,25.6,30.32,North,351,7.8,11.5,74,0.00,CLR,,0.00,0.0,WeatherDisplay:10.37,2013-01-06 09:52:00,
2013-01-06 03:57:00,33.3,25.6,30.31,North,6,5.7,9.2,73,0.00,CLR,,0.00,0.0,WeatherDisplay:10.37,2013-01-06 09:57:00,
2013-01-06 04:02:00,33.0,25.6,30.31,North,356,3.6,6.9,74,0.00,CLR,,0.00,0.0,WeatherDisplay:10.37,2013-01-06 10:02:00,
2013-01-06 04:07:00,33.3,25.9,30.31,NNW,346,5.8,11.5,74,0.00,CLR,,0.00,0.0,WeatherDisplay:10.37,2013-01-06 10:07:00,
2013-01-06 04:12:00,32.4,25.4,30.31,North,6,3.3,4.6,75,0.00,CLR,,0.00,0.0,WeatherDisplay:10.37,2013-01-06 10:12:00,
2013-01-06 04:17:00,32.7,25.6,30.31,North,356,2.2,5.8,75,0.00,CLR,,0.00,0.0,WeatherDisplay:10.37,2013-01-06 10:17:00,
2013-01-06 04:22:00,32.7,25.6,30.31,North,356,3.4,6.9,75,0.00,CLR,,0.00,0.0,WeatherDisplay:10.37,2013-01-06 10:22:00,
2013-01-06 04:27:00,32.6,25.2,30.32,North,356,2.3,3.5,74,0.00,CLR,,0.00,0.0,WeatherDisplay:10.37,2013-01-06 10:27:00,
2013-01-06 04:32:00,33.0,25.3,30.32,North,352,4.6,6.9,73,0.00,CLR,,0.00,0.0,WeatherDisplay:10.37,2013-01-06 10:32:00,
2013-01-06 04:37:00,33.0,25.3,30.32,North,349,6.5,10.4,73,0.00,CLR,,0.00,0.0,WeatherDisplay:10.37,2013-01-06 10:37:00,
2013-01-06 04:42:00,33.6,25.5,30.32,North,349,7.4,11.5,72,0.00,CLR,,0.00,0.0,WeatherDisplay:10.37,2013-01-06 10:42:00,
2013-01-06 04:47:00,33.9,25.5,30.32,North,356,5.6,10.4,71,0.00,CLR,,0.00,0.0,WeatherDisplay:10.37,2013-01-06 10:47:00,
2013-01-06 04:52:00,34.0,25.6,30.32,North,356,5.6,9.2,71,0.00,CLR,,0.00,0.0,WeatherDisplay:10.37,2013-01-06 10:52:00,
2013-01-06 04:57:00,34.0,25.6,30.32,NNW,345,5.6,9.2,71,0.00,CLR,,0.00,0.0,WeatherDisplay:10.37,2013-01-06 10:57:00,
2013-01-06 05:02:00,33.5,25.4,30.32,North,356,5.1,7.0,72,0.00,CLR,,0.00,0.0,WeatherDisplay:10.37,2013-01-06 11:02:00,
2013-01-06 05:07:00,33.4,25.3,30.33,North,356,3.8,6.9,72,0.00,CLR,,0.00,0.0,WeatherDisplay:10.37,2013-01-06 11:07:00,
2013-01-06 05:12:00,33.0,25.3,30.33,North,356,2.4,3.5,73,0.00,CLR,,0.00,0.0,WeatherDisplay:10.37,2013-01-06 11:12:00,
2013-01-06 05:17:00,32.4,25.0,30.33,North,356,4.3,5.8,74,0.00,CLR,,0.00,0.0,WeatherDisplay:10.37,2013-01-06 11:17:00,
2013-01-06 05:22:00,32.2,25.2,30.33,North,356,1.4,3.5,75,0.00,CLR,,0.00,0.0,WeatherDisplay:10.37,2013-01-06 11:22:00,
2013-01-06 05:27:00,31.8,25.1,30.33,North,356,2.9,4.6,76,0.00,CLR,,0.00,0.0,WeatherDisplay:10.37,2013-01-06 11:27:00,
2013-01-06 05:32:00,32.2,24.8,30.33,North,356,2.7,4.6,74,0.00,CLR,,0.00,0.0,WeatherDisplay:10.37,2013-01-06 11:32:00,
2013-01-06 05:37:00,32.0,25.0,30.33,North,356,2.4,4.6,75,0.00,CLR,,0.00,0.0,WeatherDisplay:10.37,2013-01-06 11:37:00,
2013-01-06 05:42:00,32.0,24.6,30.33,North,356,1.1,5.0,74,0.00,CLR,,0.00,0.0,WeatherDisplay:10.37,2013-01-06 11:42:00,
2013-01-06 05:47:00,31.9,24.9,30.33,North,356,0.4,5.0,75,0.00,CLR,,0.00,0.0,WeatherDisplay:10.37,2013-01-06 11:47:00,
2013-01-06 05:52:00,32.1,25.1,30.33,North,356,0.4,3.5,75,0.00,CLR,,0.00,0.0,WeatherDisplay:10.37,2013-01-06 11:52:00,
2013-01-06 05:57:00,32.6,25.6,30.33,North,356,2.7,6.0,75,0.00,CLR,,0.00,0.0,WeatherDisplay:10.37,2013-01-06 11:57:00,
2013-01-06 06:02:00,32.2,25.2,30.33,North,356,0.3,1.1,75,0.00,CLR,,0.00,0.0,WeatherDisplay:10.37,2013-01-06 12:02:00,
2013-01-06 06:07:00,32.2,25.5,30.33,North,356,0.8,3.5,76,0.00,CLR,,0.00,0.0,WeatherDisplay:10.37,2013-01-06 12:07:00,
2013-01-06 06:12:00,31.9,25.2,30.33,North,356,1.0,1.1,76,0.00,CLR,,0.00,0.0,WeatherDisplay:10.37,2013-01-06 12:12:00,
2013-01-06 06:17:00,32.0,25.3,30.33,North,356,0.3,2.3,76,0.00,CLR,,0.00,0.0,WeatherDisplay:10.37,2013-01-06 12:17:00,
2013-01-06 06:22:00,31.8,25.1,30.33,North,356,1.3,3.5,76,0.00,CLR,,0.00,0.0,WeatherDisplay:10.37,2013-01-06 12:22:00,
2013-01-06 06:27:00,31.1,25.0,30.34,North,356,0.6,3.5,78,0.00,CLR,,0.00,0.0,WeatherDisplay:10.37,2013-01-06 12:27:00,
2013-01-06 06:32:00,30.4,24.7,30.34,North,356,0.0,0.0,79,0.00,CLR,,0.00,0.0,WeatherDisplay:10.37,2013-01-06 12:32:00,
2013-01-06 06:37:00,30.4,25.0,30.34,North,356,0.0,0.0,80,0.00,CLR,,0.00,0.0,WeatherDisplay:10.37,2013-01-06 12:37:00,
2013-01-06 06:42:00,29.6,24.8,30.34,North,356,0.0,0.0,82,0.00,CLR,,0.00,0.0,WeatherDisplay:10.37,2013-01-06 12:42:00,
2013-01-06 06:47:00,28.4,24.2,30.35,North,356,0.0,0.0,84,0.00,CLR,,0.00,0.0,WeatherDisplay:10.37,2013-01-06 12:47:00,
2013-01-06 06:52:00,28.0,24.1,30.35,North,356,0.0,0.0,85,0.00,CLR,,0.00,0.0,WeatherDisplay:10.37,2013-01-06 12:52:00,
2013-01-06 06:57:00,28.2,24.3,30.35,North,356,0.0,0.0,85,0.00,CLR,,0.00,0.0,WeatherDisplay:10.37,2013-01-06 12:57:00,
2013-01-06 07:02:00,28.4,24.5,30.35,North,356,0.0,0.0,85,0.00,CLR,,0.00,0.0,WeatherDisplay:10.37,2013-01-06 13:02:00,
2013-01-06 07:07:00,28.2,24.0,30.35,North,356,0.0,0.0,84,0.00,CLR,,0.00,0.0,WeatherDisplay:10.37,2013-01-06 13:07:00,
2013-01-06 07:12:00,28.3,24.4,30.36,North,356,0.0,0.0,85,0.00,CLR,,0.00,0.0,WeatherDisplay:10.37,2013-01-06 13:12:00,
2013-01-06 07:17:00,27.9,24.0,30.36,North,356,0.0,0.0,85,0.00,CLR,,0.00,0.0,WeatherDisplay:10.37,2013-01-06 13:17:00,
2013-01-06 07:22:00,28.1,24.2,30.36,North,356,0.0,0.0,85,0.00,CLR,,0.00,0.0,WeatherDisplay:10.37,2013-01-06 13:22:00,
2013-01-06 07:27:00,27.0,23.6,30.36,North,356,0.0,0.0,87,0.00,CLR,,0.00,0.0,WeatherDisplay:10.37,2013-01-06 13:27:00,
2013-01-06 07:32:00,27.1,23.7,30.36,North,356,0.0,0.0,87,0.00,CLR,,0.00,0.0,WeatherDisplay:10.37,2013-01-06 13:32:00,
2013-01-06 07:37:00,27.6,24.2,30.36,North,356,0.0,0.0,87,0.00,CLR,,0.00,5.5,WeatherDisplay:10.37,2013-01-06 13:37:00,
2013-01-06 07:42:00,27.6,23.7,30.36,North,356,0.0,0.0,85,0.00,CLR,,0.00,7.7,WeatherDisplay:10.37,2013-01-06 13:42:00,
2013-01-06 07:47:00,29.1,25.2,30.37,North,356,0.0,0.0,85,0.00,CLR,,0.00,12.1,WeatherDisplay:10.37,2013-01-06 13:47:00,
2013-01-06 07:52:00,29.7,25.5,30.37,North,356,0.0,0.0,84,0.00,CLR,,0.00,13.2,WeatherDisplay:10.37,2013-01-06 13:52:00,
2013-01-06 07:57:00,29.4,25.2,30.37,North,356,0.0,0.0,84,0.00,CLR,,0.00,15.4,WeatherDisplay:10.37,2013-01-06 13:57:00,
2013-01-06 08:02:00,29.3,25.4,30.37,North,356,0.0,0.0,85,0.00,CLR,,0.00,17.6,WeatherDisplay:10.37,2013-01-06 14:02:00,
2013-01-06 08:07:00,30.0,25.8,30.37,North,356,0.0,0.0,84,0.00,CLR,,0.00,19.8,WeatherDisplay:10.37,2013-01-06 14:07:00,
2013-01-06 08:12:00,30.9,26.1,30.37,North,356,0.0,0.0,82,0.00,CLR,,0.00,20.9,WeatherDisplay:10.37,2013-01-06 14:12:00,
2013-01-06 08:17:00,31.2,25.7,30.37,North,356,0.0,0.0,80,0.00,CLR,,0.00,23.1,WeatherDisplay:10.37,2013-01-06 14:17:00,
2013-01-06 08:22:00,32.1,25.7,30.38,North,356,0.0,2.3,77,0.00,CLR,,0.00,25.3,WeatherDisplay:10.37,2013-01-06 14:22:00,
2013-01-06 08:27:00,32.2,26.1,30.38,North,356,1.4,2.3,78,0.00,CLR,,0.00,25.3,WeatherDisplay:10.37,2013-01-06 14:27:00,
2013-01-06 08:32:00,33.3,26.2,30.38,North,356,2.9,5.8,75,0.00,CLR,,0.00,27.5,WeatherDisplay:10.37,2013-01-06 14:32:00,
2013-01-06 08:37:00,34.6,27.2,30.38,North,356,5.1,8.1,74,0.00,CLR,,0.00,28.6,WeatherDisplay:10.37,2013-01-06 14:37:00,
2013-01-06 08:42:00,35.3,27.2,30.38,NNE,18,4.6,6.9,72,0.00,CLR,,0.00,30.8,WeatherDisplay:10.37,2013-01-06 14:42:00,
2013-01-06 08:47:00,36.0,27.5,30.39,NNE,18,7.3,11.5,71,0.00,CLR,,0.00,30.8,WeatherDisplay:10.37,2013-01-06 14:47:00,
2013-01-06 08:52:00,36.3,27.1,30.39,North,6,6.0,8.1,69,0.00,CLR,,0.00,33.0,WeatherDisplay:10.37,2013-01-06 14:52:00,
2013-01-06 08:57:00,36.7,27.1,30.39,NNE,29,7.2,11.5,68,0.00,CLR,,0.00,71.5,WeatherDisplay:10.37,2013-01-06 14:57:00,
2013-01-06 09:02:00,36.8,27.2,30.39,North,1,6.5,8.1,68,0.00,CLR,,0.00,35.2,WeatherDisplay:10.37,2013-01-06 15:02:00,
2013-01-06 09:07:00,37.4,27.4,30.40,North,351,7.2,10.4,67,0.00,CLR,,0.00,36.3,WeatherDisplay:10.37,2013-01-06 15:07:00,
2013-01-06 09:12:00,37.6,27.3,30.40,North,6,4.5,5.8,66,0.00,CLR,,0.00,51.7,WeatherDisplay:10.37,2013-01-06 15:12:00,
2013-01-06 09:17:00,37.8,27.8,30.40,North,6,2.2,3.5,67,0.00,CLR,,0.00,53.9,WeatherDisplay:10.37,2013-01-06 15:17:00,
2013-01-06 09:22:00,38.3,27.6,30.40,NNE,25,4.6,8.1,65,0.00,CLR,,0.00,68.2,WeatherDisplay:10.37,2013-01-06 15:22:00,
2013-01-06 09:27:00,38.7,27.2,30.40,North,6,5.6,9.2,63,0.00,CLR,,0.00,79.2,WeatherDisplay:10.37,2013-01-06 15:27:00,
2013-01-06 09:32:00,39.3,27.0,30.40,North,356,4.3,8.1,61,0.00,CLR,,0.00,247.5,WeatherDisplay:10.37,2013-01-06 15:32:00,
2013-01-06 09:37:00,39.8,27.4,30.40,North,352,7.8,10.4,61,0.00,CLR,,0.00,321.2,WeatherDisplay:10.37,2013-01-06 15:37:00,
2013-01-06 09:42:00,40.3,27.5,30.41,NNE,16,5.3,6.9,60,0.00,CLR,,0.00,349.8,WeatherDisplay:10.37,2013-01-06 15:42:00,
2013-01-06 09:47:00,40.6,27.0,30.41,North,10,5.0,6.9,58,0.00,CLR,,0.00,367.4,WeatherDisplay:10.37,2013-01-06 15:47:00,
2013-01-06 09:52:00,41.2,26.7,30.41,North,1,3.5,5.8,56,0.00,CLR,,0.00,377.3,WeatherDisplay:10.37,2013-01-06 15:52:00,
2013-01-06 09:57:00,41.6,27.1,30.41,NNW,345,6.1,9.2,56,0.00,CLR,,0.00,394.9,WeatherDisplay:10.37,2013-01-06 15:57:00,
2013-01-06 10:02:00,41.4,26.4,30.41,North,356,6.4,11.5,55,0.00,CLR,,0.00,408.1,WeatherDisplay:10.37,2013-01-06 16:02:00,
2013-01-06 10:07:00,42.3,26.8,30.41,North,351,5.9,10.4,54,0.00,CLR,,0.00,423.5,WeatherDisplay:10.37,2013-01-06 16:07:00,
2013-01-06 10:12:00,42.8,25.9,30.41,NNW,345,4.0,8.1,51,0.00,CLR,,0.00,435.6,WeatherDisplay:10.37,2013-01-06 16:12:00,
2013-01-06 10:17:00,42.8,24.4,30.42,NNW,338,5.0,6.9,48,0.00,CLR,,0.00,451.0,WeatherDisplay:10.37,2013-01-06 16:17:00,
2013-01-06 10:22:00,43.2,25.3,30.41,North,349,5.1,9.2,49,0.00,CLR,,0.00,462.0,WeatherDisplay:10.37,2013-01-06 16:22:00,
2013-01-06 10:27:00,43.4,25.0,30.42,NNW,347,1.0,4.0,48,0.00,CLR,,0.00,474.1,WeatherDisplay:10.37,2013-01-06 16:27:00,
2013-01-06 10:32:00,44.0,25.0,30.41,NNW,348,7.6,10.4,47,0.00,CLR,,0.00,487.3,WeatherDisplay:10.37,2013-01-06 16:32:00,
2013-01-06 10:37:00,44.0,23.5,30.41,North,6,9.0,12.7,44,0.00,CLR,,0.00,497.2,WeatherDisplay:10.37,2013-01-06 16:37:00,
2013-01-06 10:42:00,43.5,23.0,30.41,North,356,6.5,8.1,44,0.00,CLR,,0.00,508.2,WeatherDisplay:10.37,2013-01-06 16:42:00,
2013-01-06 10:47:00,43.5,23.5,30.41,NNE,33,5.2,6.9,45,0.00,CLR,,0.00,518.1,WeatherDisplay:10.37,2013-01-06 16:47:00,
2013-01-06 10:52:00,44.5,23.9,30.41,NE,41,5.9,10.4,44,0.00,CLR,,0.00,530.2,WeatherDisplay:10.37,2013-01-06 16:52:00,
2013-01-06 10:57:00,44.8,23.6,30.41,NNE,25,6.2,10.4,43,0.00,CLR,,0.00,539.0,WeatherDisplay:10.37,2013-01-06 16:57:00,
2013-01-06 11:02:00,44.9,23.2,30.41,NNE,28,5.4,10.4,42,0.00,CLR,,0.00,546.7,WeatherDisplay:10.37,2013-01-06 17:02:00,
2013-01-06 11:07:00,45.9,24.6,30.41,NNW,348,4.2,8.1,43,0.00,CLR,,0.00,558.8,WeatherDisplay:10.37,2013-01-06 17:07:00,
2013-01-06 11:12:00,45.0,23.3,30.41,NNE,14,6.5,8.1,42,0.00,CLR,,0.00,566.5,WeatherDisplay:10.37,2013-01-06 17:12:00,
2013-01-06 11:17:00,45.5,23.7,30.41,NNW,345,5.6,8.1,42,0.00,CLR,,0.00,574.2,WeatherDisplay:10.37,2013-01-06 17:17:00,
2013-01-06 11:22:00,46.4,24.5,30.41,North,349,4.2,6.0,42,0.00,CLR,,0.00,581.9,WeatherDisplay:10.37,2013-01-06 17:22:00,
2013-01-06 11:27:00,46.4,24.5,30.40,NNW,345,6.5,9.2,42,0.00,CLR,,0.00,587.4,WeatherDisplay:10.37,2013-01-06 17:27:00,
2013-01-06 11:32:00,47.3,25.9,30.40,North,356,2.9,4.6,43,0.00,CLR,,0.00,595.1,WeatherDisplay:10.37,2013-01-06 17:32:00,
2013-01-06 11:37:00,45.6,25.5,30.40,NNE,31,7.7,10.4,45,0.00,CLR,,0.00,599.5,WeatherDisplay:10.37,2013-01-06 17:37:00,
2013-01-06 11:42:00,46.9,25.5,30.40,North,6,6.9,10.4,43,0.00,CLR,,0.00,605.0,WeatherDisplay:10.37,2013-01-06 17:42:00,
2013-01-06 11:47:00,47.3,25.3,30.40,North,356,2.7,6.9,42,0.00,CLR,,0.00,610.5,WeatherDisplay:10.37,2013-01-06 17:47:00,
2013-01-06 11:52:00,47.0,25.1,30.40,NNE,19,8.2,11.5,42,0.00,CLR,,0.00,617.1,WeatherDisplay:10.37,2013-01-06 17:52:00,
2013-01-06 11:57:00,48.0,26.0,30.39,NNE,18,6.5,9.2,42,0.00,CLR,,0.00,624.8,WeatherDisplay:10.37,2013-01-06 17:57:00,
2013-01-06 12:02:00,48.2,26.2,30.39,North,11,6.2,10.4,42,0.00,CLR,,0.00,624.8,WeatherDisplay:10.37,2013-01-06 18:02:00,
2013-01-06 12:07:00,49.2,26.5,30.38,NW,324,5.5,10.4,41,0.00,CLR,,0.00,628.1,WeatherDisplay:10.37,2013-01-06 18:07:00,
2013-01-06 12:12:00,49.3,26.6,30.38,NW,319,1.6,7.0,41,0.00,CLR,,0.00,634.7,WeatherDisplay:10.37,2013-01-06 18:12:00,
2013-01-06 12:17:00,49.5,26.1,30.38,NNE,27,3.2,6.0,40,0.00,CLR,,0.00,634.7,WeatherDisplay:10.37,2013-01-06 18:17:00,
2013-01-06 12:22:00,50.2,25.5,30.38,NW,311,5.6,10.0,38,0.00,CLR,,0.00,635.8,WeatherDisplay:10.37,2013-01-06 18:22:00,
2013-01-06 12:27:00,51.0,25.0,30.37,NNE,20,4.4,8.1,36,0.00,CLR,,0.00,640.2,WeatherDisplay:10.37,2013-01-06 18:27:00,
2013-01-06 12:32:00,50.4,24.4,30.37,NNE,31,6.8,10.4,36,0.00,CLR,,0.00,638.0,WeatherDisplay:10.37,2013-01-06 18:32:00,
2013-01-06 12:37:00,50.7,24.7,30.36,NNE,27,6.2,9.2,36,0.00,CLR,,0.00,640.2,WeatherDisplay:10.37,2013-01-06 18:37:00,
2013-01-06 12:42:00,51.5,25.4,30.36,North,351,4.1,9.2,36,0.00,CLR,,0.00,642.4,WeatherDisplay:10.37,2013-01-06 18:42:00,
2013-01-06 12:47:00,51.1,24.4,30.36,NNW,346,6.7,11.5,35,0.00,CLR,,0.00,642.4,WeatherDisplay:10.37,2013-01-06 18:47:00,
2013-01-06 12:52:00,52.0,23.8,30.35,North,351,4.7,8.1,33,0.00,CLR,,0.00,640.2,WeatherDisplay:10.37,2013-01-06 18:52:00,
2013-01-06 12:57:00,50.9,24.2,30.35,NNE,17,5.9,8.1,35,0.00,CLR,,0.00,640.2,WeatherDisplay:10.37,2013-01-06 18:57:00,
2013-01-06 13:02:00,52.5,24.2,30.35,NNW,335,7.4,10.4,33,0.00,CLR,,0.00,638.0,WeatherDisplay:10.37,2013-01-06 19:02:00,
2013-01-06 13:07:00,51.6,24.1,30.35,NE,39,4.5,6.9,34,0.00,CLR,,0.00,634.7,WeatherDisplay:10.37,2013-01-06 19:07:00,
2013-01-06 13:12:00,52.6,25.0,30.34,NW,322,2.3,4.0,34,0.00,CLR,,0.00,634.7,WeatherDisplay:10.37,2013-01-06 19:12:00,
2013-01-06 13:17:00,52.7,23.6,30.34,NNE,33,3.2,4.6,32,0.00,CLR,,0.00,632.5,WeatherDisplay:10.37,2013-01-06 19:17:00,
2013-01-06 13:22:00,52.6,23.5,30.34,NNW,341,8.8,12.0,32,0.00,CLR,,0.00,627.0,WeatherDisplay:10.37,2013-01-06 19:22:00,
2013-01-06 13:27:00,53.6,25.9,30.33,North,352,5.7,11.5,34,0.00,CLR,,0.00,620.4,WeatherDisplay:10.37,2013-01-06 19:27:00,
2013-01-06 13:32:00,52.8,23.0,30.33,NNE,25,6.7,10.4,31,0.00,CLR,,0.00,617.1,WeatherDisplay:10.37,2013-01-06 19:32:00,
2013-01-06 13:37:00,53.4,23.5,30.33,North,356,7.0,12.0,31,0.00,CLR,,0.00,610.5,WeatherDisplay:10.37,2013-01-06 19:37:00,
2013-01-06 13:47:00,53.4,22.7,30.33,NNW,345,7.6,11.5,30,0.00,CLR,,0.00,601.7,WeatherDisplay:10.37,2013-01-06 19:47:00,
2013-01-06 13:52:00,53.8,23.1,30.33,NNE,33,5.5,9.2,30,0.00,CLR,,0.00,591.8,WeatherDisplay:10.37,2013-01-06 19:52:00,
2013-01-06 13:58:00,53.1,21.6,30.33,North,356,12.6,15.0,29,0.00,CLR,,0.00,553.3,WeatherDisplay:10.37,2013-01-06 19:58:00,
2013-01-06 14:03:00,53.3,22.6,30.33,NE,43,7.6,10.0,30,0.00,CLR,,0.00,204.6,WeatherDisplay:10.37,2013-01-06 20:03:00,
2013-01-06 14:09:00,54.7,23.8,30.32,NNW,337,4.0,6.0,30,0.00,CLR,,0.00,570.9,WeatherDisplay:10.37,2013-01-06 20:09:00,
2013-01-06 14:11:00,54.3,24.3,30.32,North,351,9.0,11.5,31,0.00,CLR,,0.00,564.3,WeatherDisplay:10.37,2013-01-06 20:11:00,
2013-01-06 14:13:00,54.5,24.4,30.32,NNW,345,4.7,11.5,31,0.00,CLR,,0.00,561.0,WeatherDisplay:10.37,2013-01-06 20:13:00,
2013-01-06 14:18:00,54.2,23.4,30.32,NNE,26,11.0,16.1,30,0.00,CLR,,0.00,553.3,WeatherDisplay:10.37,2013-01-06 20:18:00,
2013-01-06 14:23:00,55.1,23.4,30.32,North,356,4.2,6.0,29,0.00,CLR,,0.00,543.4,WeatherDisplay:10.37,2013-01-06 20:23:00,
2013-01-06 14:28:00,54.1,22.5,30.32,North,1,6.7,11.5,29,0.00,CLR,,0.00,535.7,WeatherDisplay:10.37,2013-01-06 20:28:00,
2013-01-06 14:33:00,53.7,22.2,30.32,North,356,5.4,9.2,29,0.00,CLR,,0.00,523.6,WeatherDisplay:10.37,2013-01-06 20:33:00,
2013-01-06 14:38:00,55.1,24.2,30.32,NNW,342,5.5,8.0,30,0.00,CLR,,0.00,514.8,WeatherDisplay:10.37,2013-01-06 20:38:00,
2013-01-06 14:43:00,54.1,22.5,30.32,North,351,6.8,11.5,29,0.00,CLR,,0.00,500.5,WeatherDisplay:10.37,2013-01-06 20:43:00,
2013-01-06 14:48:00,54.2,21.8,30.32,North,350,5.7,9.2,28,0.00,CLR,,0.00,489.5,WeatherDisplay:10.37,2013-01-06 20:48:00,
2013-01-06 14:54:00,55.4,25.2,30.32,North,6,3.5,6.9,31,0.00,CLR,,0.00,477.4,WeatherDisplay:10.37,2013-01-06 20:54:00,
2013-01-06 14:59:00,54.4,23.6,30.32,NNE,19,5.6,9.2,30,0.00,CLR,,0.00,42.9,WeatherDisplay:10.37,2013-01-06 20:59:00,
2013-01-06 15:00:00,54.8,23.1,30.32,North,356,4.1,7.0,29,0.00,CLR,,0.00,42.9,WeatherDisplay:10.37,2013-01-06 21:00:00,
2013-01-06 15:05:00,54.3,21.8,30.32,North,1,9.2,11.5,28,0.00,CLR,,0.00,100.1,WeatherDisplay:10.37,2013-01-06 21:05:00,
2013-01-06 15:10:00,54.6,22.9,30.32,NNW,347,2.0,3.0,29,0.00,CLR,,0.00,58.3,WeatherDisplay:10.37,2013-01-06 21:10:00,
2013-01-06 15:15:00,54.5,22.9,30.32,North,356,4.6,8.1,29,0.00,CLR,,0.00,44.0,WeatherDisplay:10.37,2013-01-06 21:15:00,
2013-01-06 15:20:00,54.5,22.0,30.32,NNE,18,4.7,6.9,28,0.00,CLR,,0.00,50.6,WeatherDisplay:10.37,2013-01-06 21:20:00,
2013-01-06 15:25:00,54.2,21.8,30.32,ENE,58,5.3,10.4,28,0.00,CLR,,0.00,40.7,WeatherDisplay:10.37,2013-01-06 21:25:00,
2013-01-06 15:30:00,54.8,23.1,30.32,NE,41,3.0,8.1,29,0.00,CLR,,0.00,59.4,WeatherDisplay:10.37,2013-01-06 21:30:00,
2013-01-06 15:35:00,54.5,21.2,30.32,NNE,22,4.1,6.9,27,0.00,CLR,,0.00,38.5,WeatherDisplay:10.37,2013-01-06 21:35:00,
2013-01-06 15:40:00,54.3,21.0,30.32,NNE,27,5.1,8.0,27,0.00,CLR,,0.00,38.5,WeatherDisplay:10.37,2013-01-06 21:40:00,
2013-01-06 15:45:00,54.0,21.6,30.32,NE,37,4.4,8.1,28,0.00,CLR,,0.00,59.4,WeatherDisplay:10.37,2013-01-06 21:45:00,
2013-01-06 15:50:00,54.0,21.6,30.32,NNE,21,7.9,11.5,28,0.00,CLR,,0.00,42.9,WeatherDisplay:10.37,2013-01-06 21:50:00,
2013-01-06 15:55:00,53.8,21.4,30.32,NE,35,4.5,5.8,28,0.00,CLR,,0.00,71.5,WeatherDisplay:10.37,2013-01-06 21:55:00,
2013-01-06 16:00:00,53.8,21.4,30.32,NNE,23,4.5,7.0,28,0.00,CLR,,0.00,73.7,WeatherDisplay:10.37,2013-01-06 22:00:00,
2013-01-06 16:05:00,53.6,21.2,30.32,NE,36,3.8,6.9,28,0.00,CLR,,0.00,36.3,WeatherDisplay:10.37,2013-01-06 22:05:00,
2013-01-06 16:10:00,53.3,22.6,30.32,NE,43,2.3,5.8,30,0.00,CLR,,0.00,36.3,WeatherDisplay:10.37,2013-01-06 22:10:00,
2013-01-06 16:15:00,53.3,20.1,30.32,NNE,33,5.2,8.1,27,0.00,CLR,,0.00,44.0,WeatherDisplay:10.37,2013-01-06 22:15:00,
2013-01-06 16:20:00,53.1,20.8,30.32,NE,45,5.5,11.5,28,0.00,CLR,,0.00,35.2,WeatherDisplay:10.37,2013-01-06 22:20:00,
2013-01-06 16:25:00,52.6,21.2,30.32,NE,40,3.6,4.6,29,0.00,CLR,,0.00,33.0,WeatherDisplay:10.37,2013-01-06 22:25:00,
2013-01-06 16:30:00,52.8,20.5,30.32,NE,38,2.3,4.6,28,0.00,CLR,,0.00,33.0,WeatherDisplay:10.37,2013-01-06 22:30:00,
2013-01-06 16:35:00,52.4,21.8,30.32,NE,36,1.2,3.5,30,0.00,CLR,,0.00,30.8,WeatherDisplay:10.37,2013-01-06 22:35:00,
2013-01-06 16:40:00,52.1,22.3,30.31,NE,35,2.8,5.0,31,0.00,CLR,,0.00,28.6,WeatherDisplay:10.37,2013-01-06 22:40:00,
2013-01-06 16:45:00,51.9,22.2,30.31,NNE,22,2.8,5.8,31,0.00,CLR,,0.00,27.5,WeatherDisplay:10.37,2013-01-06 22:45:00,
2013-01-06 16:50:00,51.0,22.1,30.32,NNE,12,1.0,4.0,32,0.00,CLR,,0.00,27.5,WeatherDisplay:10.37,2013-01-06 22:50:00,
2013-01-06 16:55:00,51.3,22.4,30.32,NNE,12,4.9,6.9,32,0.00,CLR,,0.00,23.1,WeatherDisplay:10.37,2013-01-06 22:55:00,
2013-01-06 17:00:00,50.5,21.7,30.31,NNE,13,1.5,3.5,32,0.00,CLR,,0.00,23.1,WeatherDisplay:10.37,2013-01-06 23:00:00,
2013-01-06 17:05:00,49.8,21.8,30.31,NE,46,1.1,3.5,33,0.00,CLR,,0.00,20.9,WeatherDisplay:10.37,2013-01-06 23:05:00,
2013-01-06 17:10:00,49.6,21.6,30.31,NE,46,2.6,4.6,33,0.00,CLR,,0.00,17.6,WeatherDisplay:10.37,2013-01-06 23:10:00,
2013-01-06 17:15:00,49.3,22.1,30.31,NE,46,2.8,4.6,34,0.00,CLR,,0.00,15.4,WeatherDisplay:10.37,2013-01-06 23:15:00,
2013-01-06 17:20:00,48.4,22.6,30.31,NE,46,1.5,3.5,36,0.00,CLR,,0.00,12.1,WeatherDisplay:10.37,2013-01-06 23:20:00,
2013-01-06 17:25:00,47.2,22.2,30.31,NE,46,1.6,3.5,37,0.00,CLR,,0.00,9.9,WeatherDisplay:10.37,2013-01-06 23:25:00,
2013-01-06 17:30:00,46.5,22.8,30.32,NE,46,2.2,3.5,39,0.00,CLR,,0.00,5.5,WeatherDisplay:10.37,2013-01-06 23:30:00,
2013-01-06 17:35:00,45.6,23.2,30.32,NE,46,2.0,3.5,41,0.00,CLR,,0.00,0.0,WeatherDisplay:10.37,2013-01-06 23:35:00,
2013-01-06 17:40:00,45.0,23.3,30.32,NE,46,1.5,3.5,42,0.00,CLR,,0.00,0.0,WeatherDisplay:10.37,2013-01-06 23:40:00,
2013-01-06 17:45:00,44.1,23.0,30.32,NE,46,1.7,3.5,43,0.00,CLR,,0.00,0.0,WeatherDisplay:10.37,2013-01-06 23:45:00,
2013-01-06 17:50:00,44.1,22.4,30.32,NE,46,2.0,3.5,42,0.00,CLR,,0.00,0.0,WeatherDisplay:10.37,2013-01-06 23:50:00,
2013-01-06 17:55:00,43.5,22.5,30.32,NE,46,2.0,2.3,43,0.00,CLR,,0.00,0.0,WeatherDisplay:10.37,2013-01-06 23:55:00,
2013-01-06 18:00:00,42.8,22.4,30.32,NE,46,2.6,3.5,44,0.00,CLR,,0.00,0.0,WeatherDisplay:10.37,2013-01-07 00:00:00,
2013-01-06 18:05:00,42.8,22.9,30.32,NE,46,1.2,2.3,45,0.00,CLR,,0.00,0.0,WeatherDisplay:10.37,2013-01-07 00:05:00,
2013-01-06 18:10:00,42.4,22.5,30.32,NE,46,0.0,0.0,45,0.00,CLR,,0.00,0.0,WeatherDisplay:10.37,2013-01-07 00:10:00,
2013-01-06 18:15:00,42.6,21.6,30.32,NE,46,0.0,0.0,43,0.00,CLR,,0.00,0.0,WeatherDisplay:10.37,2013-01-07 00:15:00,
2013-01-06 18:20:00,41.5,22.2,30.32,NE,46,0.0,0.0,46,0.00,CLR,,0.00,0.0,WeatherDisplay:10.37,2013-01-07 00:20:00,
2013-01-06 18:25:00,41.9,22.6,30.32,NE,46,0.0,0.0,46,0.00,CLR,,0.00,0.0,WeatherDisplay:10.37,2013-01-07 00:25:00,
2013-01-06 18:30:00,41.0,22.3,30.32,NE,46,0.0,0.0,47,0.00,CLR,,0.00,0.0,WeatherDisplay:10.37,2013-01-07 00:30:00,
2013-01-06 18:35:00,40.0,22.8,30.32,NE,46,0.0,0.0,50,0.00,CLR,,0.00,0.0,WeatherDisplay:10.37,2013-01-07 00:35:00,
2013-01-06 18:40:00,39.7,23.0,30.32,NE,46,0.0,0.0,51,0.00,CLR,,0.00,0.0,WeatherDisplay:10.37,2013-01-07 00:40:00,
2013-01-06 18:45:00,39.6,22.0,30.32,NE,46,0.0,0.0,49,0.00,CLR,,0.00,0.0,WeatherDisplay:10.37,2013-01-07 00:45:00,
2013-01-06 18:50:00,39.9,21.8,30.32,NE,46,0.0,0.0,48,0.00,CLR,,0.00,0.0,WeatherDisplay:10.37,2013-01-07 00:50:00,
2013-01-06 18:55:00,37.9,24.4,30.32,NE,46,0.0,0.0,58,0.00,CLR,,0.00,0.0,WeatherDisplay:10.37,2013-01-07 00:55:00,
2013-01-06 19:00:00,36.7,25.3,30.33,NE,46,0.0,0.0,63,0.00,CLR,,0.00,0.0,WeatherDisplay:10.37,2013-01-07 01:00:00,
2013-01-06 19:05:00,37.0,25.6,30.33,NE,46,0.0,0.0,63,0.00,CLR,,0.00,0.0,WeatherDisplay:10.37,2013-01-07 01:05:00,
2013-01-06 19:10:00,36.2,24.0,30.33,NE,46,0.0,0.0,61,0.00,CLR,,0.00,0.0,WeatherDisplay:10.37,2013-01-07 01:10:00,
2013-01-06 19:15:00,36.7,22.9,30.33,NE,46,0.0,0.0,57,0.00,CLR,,0.00,0.0,WeatherDisplay:10.37,2013-01-07 01:15:00,
2013-01-06 19:20:00,35.2,25.0,30.33,NE,46,0.0,0.0,66,0.00,CLR,,0.00,0.0,WeatherDisplay:10.37,2013-01-07 01:20:00,
2013-01-06 19:25:00,33.9,25.5,30.33,NE,46,0.0,0.0,71,0.00,CLR,,0.00,0.0,WeatherDisplay:10.37,2013-01-07 01:25:00,
2013-01-06 19:30:00,34.3,23.7,30.33,NE,46,0.0,0.0,65,0.00,CLR,,0.00,0.0,WeatherDisplay:10.37,2013-01-07 01:30:00,
2013-01-06 19:35:00,34.3,24.1,30.33,NE,46,0.0,0.0,66,0.00,CLR,,0.00,0.0,WeatherDisplay:10.37,2013-01-07 01:35:00,
2013-01-06 19:40:00,33.8,25.0,30.33,NE,46,0.0,0.0,70,0.00,CLR,,0.00,0.0,WeatherDisplay:10.37,2013-01-07 01:40:00,
2013-01-06 19:45:00,34.3,24.8,30.33,NE,46,0.0,0.0,68,0.00,CLR,,0.00,0.0,WeatherDisplay:10.37,2013-01-07 01:45:00,
2013-01-06 19:50:00,33.7,24.3,30.33,NE,46,0.0,0.0,68,0.00,CLR,,0.00,0.0,WeatherDisplay:10.37,2013-01-07 01:50:00,
2013-01-06 19:55:00,34.2,23.7,30.33,NE,46,0.0,0.0,65,0.00,CLR,,0.00,0.0,WeatherDisplay:10.37,2013-01-07 01:55:00,
2013-01-06 20:00:00,34.1,23.2,30.33,NE,46,0.0,0.0,64,0.00,CLR,,0.00,0.0,WeatherDisplay:10.37,2013-01-07 02:00:00,
2013-01-06 20:05:00,34.0,22.7,30.33,NE,46,0.0,0.0,63,0.00,CLR,,0.00,0.0,WeatherDisplay:10.37,2013-01-07 02:05:00,
2013-01-06 20:10:00,32.6,24.9,30.33,NE,46,0.0,0.0,73,0.00,CLR,,0.00,0.0,WeatherDisplay:10.37,2013-01-07 02:10:00,
2013-01-06 20:15:00,32.1,25.1,30.33,NE,46,0.0,0.0,75,0.00,CLR,,0.00,0.0,WeatherDisplay:10.37,2013-01-07 02:15:00,
2013-01-06 20:20:00,33.1,23.7,30.33,NE,46,0.0,0.0,68,0.00,CLR,,0.00,0.0,WeatherDisplay:10.37,2013-01-07 02:20:00,
2013-01-06 20:25:00,34.6,21.7,30.33,NE,46,0.0,0.0,59,0.00,CLR,,0.00,0.0,WeatherDisplay:10.37,2013-01-07 02:25:00,
2013-01-06 20:30:00,32.7,25.0,30.34,NE,46,1.9,3.5,73,0.00,CLR,,0.00,0.0,WeatherDisplay:10.37,2013-01-07 02:30:00,
2013-01-06 20:35:00,33.2,22.3,30.34,NE,46,2.2,3.5,64,0.00,CLR,,0.00,0.0,WeatherDisplay:10.37,2013-01-07 02:35:00,
2013-01-06 20:40:00,36.4,22.2,30.34,NE,46,0.0,0.0,56,0.00,CLR,,0.00,0.0,WeatherDisplay:10.37,2013-01-07 02:40:00,
2013-01-06 20:45:00,35.2,21.9,30.34,NE,46,0.0,0.0,58,0.00,CLR,,0.00,0.0,WeatherDisplay:10.37,2013-01-07 02:45:00,
2013-01-06 20:50:00,34.4,21.5,30.34,NE,46,0.0,0.0,59,0.00,CLR,,0.00,0.0,WeatherDisplay:10.37,2013-01-07 02:50:00,
2013-01-06 20:55:00,37.0,22.7,30.34,NE,46,0.0,0.0,56,0.00,CLR,,0.00,0.0,WeatherDisplay:10.37,2013-01-07 02:55:00,
2013-01-06 21:00:00,35.3,21.6,30.34,NE,46,0.0,0.0,57,0.00,CLR,,0.00,0.0,WeatherDisplay:10.37,2013-01-07 03:00:00,
2013-01-06 21:05:00,32.8,24.8,30.34,NE,46,0.0,0.0,72,0.00,CLR,,0.00,0.0,WeatherDisplay:10.37,2013-01-07 03:05:00,
2013-01-06 21:10:00,32.1,24.4,30.34,NE,46,0.0,0.0,73,0.00,CLR,,0.00,0.0,WeatherDisplay:10.37,2013-01-07 03:10:00,
2013-01-06 21:15:00,31.3,24.3,30.34,NE,46,0.0,0.0,75,0.00,CLR,,0.00,0.0,WeatherDisplay:10.37,2013-01-07 03:15:00,
2013-01-06 21:20:00,31.2,25.4,30.34,NE,46,0.0,0.0,79,0.00,CLR,,0.00,0.0,WeatherDisplay:10.37,2013-01-07 03:20:00,
2013-01-06 21:25:00,30.8,24.1,30.34,NE,46,0.0,0.0,76,0.00,CLR,,0.00,0.0,WeatherDisplay:10.37,2013-01-07 03:25:00,
2013-01-06 21:30:00,29.8,25.3,30.34,NE,46,0.0,0.0,83,0.00,CLR,,0.00,0.0,WeatherDisplay:10.37,2013-01-07 03:30:00,
2013-01-06 21:35:00,30.1,24.7,30.35,NE,46,0.0,0.0,80,0.00,CLR,,0.00,0.0,WeatherDisplay:10.37,2013-01-07 03:35:00,
2013-01-06 21:40:00,30.7,24.3,30.35,NE,46,0.0,0.0,77,0.00,CLR,,0.00,0.0,WeatherDisplay:10.37,2013-01-07 03:40:00,
2013-01-06 21:45:00,30.3,24.3,30.35,NE,46,0.0,0.0,78,0.00,CLR,,0.00,0.0,WeatherDisplay:10.37,2013-01-07 03:45:00,
2013-01-06 21:50:00,29.8,24.7,30.35,NE,46,0.0,0.0,81,0.00,CLR,,0.00,0.0,WeatherDisplay:10.37,2013-01-07 03:50:00,
2013-01-06 21:55:00,30.5,24.1,30.35,NE,46,0.0,0.0,77,0.00,CLR,,0.00,0.0,WeatherDisplay:10.37,2013-01-07 03:55:00,
2013-01-06 22:00:00,29.3,24.8,30.35,NE,46,0.0,0.0,83,0.00,CLR,,0.00,0.0,WeatherDisplay:10.37,2013-01-07 04:00:00,
2013-01-06 22:05:00,28.5,23.4,30.35,NE,46,0.0,0.0,81,0.00,CLR,,0.00,0.0,WeatherDisplay:10.37,2013-01-07 04:05:00,
2013-01-06 22:10:00,28.6,24.7,30.35,NE,46,0.0,0.0,85,0.00,CLR,,0.00,0.0,WeatherDisplay:10.37,2013-01-07 04:10:00,
2013-01-06 22:15:00,28.6,24.7,30.35,NE,46,0.0,0.0,85,0.00,CLR,,0.00,0.0,WeatherDisplay:10.37,2013-01-07 04:15:00,
2013-01-06 22:20:00,27.9,23.7,30.35,NE,46,0.0,0.0,84,0.00,CLR,,0.00,0.0,WeatherDisplay:10.37,2013-01-07 04:20:00,
2013-01-06 22:25:00,27.9,23.4,30.35,NE,46,0.0,0.0,83,0.00,CLR,,0.00,0.0,WeatherDisplay:10.37,2013-01-07 04:25:00,
2013-01-06 22:30:00,28.0,23.8,30.35,NE,46,0.0,0.0,84,0.00,CLR,,0.00,0.0,WeatherDisplay:10.37,2013-01-07 04:30:00,
2013-01-06 22:35:00,28.1,24.2,30.35,NE,46,0.0,0.0,85,0.00,CLR,,0.00,0.0,WeatherDisplay:10.37,2013-01-07 04:35:00,
2013-01-06 22:40:00,27.9,24.3,30.35,NE,46,0.0,0.0,86,0.00,CLR,,0.00,0.0,WeatherDisplay:10.37,2013-01-07 04:40:00,
2013-01-06 22:45:00,27.7,24.1,30.35,NE,46,0.0,0.0,86,0.00,CLR,,0.00,0.0,WeatherDisplay:10.37,2013-01-07 04:45:00,
2013-01-06 22:50:00,27.4,23.5,30.35,NE,46,0.0,0.0,85,0.00,CLR,,0.00,0.0,WeatherDisplay:10.37,2013-01-07 04:50:00,
2013-01-06 22:55:00,27.0,22.5,30.34,NE,46,0.0,0.0,83,0.00,CLR,,0.00,0.0,WeatherDisplay:10.37,2013-01-07 04:55:00,
2013-01-06 23:00:00,26.4,21.9,30.34,NE,46,0.0,0.0,83,0.00,CLR,,0.00,0.0,WeatherDisplay:10.37,2013-01-07 05:00:00,
2013-01-06 23:02:00,26.4,22.2,30.34,NE,46,0.0,0.0,84,0.00,CLR,,0.00,0.0,WeatherDisplay:10.37,2013-01-07 05:02:00,
2013-01-06 23:07:00,26.2,22.0,30.34,NE,46,0.0,0.0,84,0.00,CLR,,0.00,0.0,WeatherDisplay:10.37,2013-01-07 05:07:00,
2013-01-06 23:12:00,26.9,22.4,30.34,NE,46,0.0,0.0,83,0.00,CLR,,0.00,0.0,WeatherDisplay:10.37,2013-01-07 05:12:00,
2013-01-06 23:17:00,27.2,22.4,30.34,NE,46,0.0,0.0,82,0.00,CLR,,0.00,0.0,WeatherDisplay:10.37,2013-01-07 05:17:00,
2013-01-06 23:22:00,26.7,22.8,30.34,NE,46,0.0,0.0,85,0.00,CLR,,0.00,0.0,WeatherDisplay:10.37,2013-01-07 05:22:00,
2013-01-06 23:27:00,26.4,22.8,30.34,NE,46,0.0,0.0,86,0.00,CLR,,0.00,0.0,WeatherDisplay:10.37,2013-01-07 05:27:00,
2013-01-06 23:32:00,25.9,22.0,30.34,NE,46,0.0,0.0,85,0.00,CLR,,0.00,0.0,WeatherDisplay:10.37,2013-01-07 05:32:00,
2013-01-06 23:37:00,26.0,22.1,30.34,NE,46,0.0,0.0,85,0.00,CLR,,0.00,0.0,WeatherDisplay:10.37,2013-01-07 05:37:00,
2013-01-06 23:42:00,26.7,22.5,30.34,NE,46,0.0,0.0,84,0.00,CLR,,0.00,0.0,WeatherDisplay:10.37,2013-01-07 05:42:00,
2013-01-06 23:47:00,26.8,22.9,30.34,NE,46,0.0,0.0,85,0.00,CLR,,0.00,0.0,WeatherDisplay:10.37,2013-01-07 05:47:00,
2013-01-06 23:52:00,25.5,21.6,30.33,NE,46,0.0,0.0,85,0.00,CLR,,0.00,0.0,WeatherDisplay:10.37,2013-01-07 05:52:00,
2013-01-06 23:57:00,25.0,21.4,30.33,NE,46,0.0,0.0,86,0.00,CLR,,0.00,0.0,WeatherDisplay:10.37,2013-01-07 05:57:00,